createdAt,value
2023-01-29T00:01:16.527Z,101475.35
2023-01-29T00:03:47.092Z,101481.91
2023-01-29T00:06:19.339Z,101475.41
2023-01-29T00:08:49.845Z,101468.63
2023-01-29T00:11:22.019Z,101469.17
2023-01-29T00:13:53.047Z,101468.27
2023-01-29T00:16:24.513Z,101471.30
2023-01-29T00:18:58.072Z,101477.86
2023-01-29T00:21:30.242Z,101467.75
2023-01-29T00:24:01.381Z,101465.58
2023-01-29T00:26:32.590Z,101453.31
2023-01-29T00:29:03.248Z,101435.62
2023-01-29T00:31:33.871Z,101429.19
2023-01-29T00:34:05.286Z,101424.27
2023-01-29T00:36:36.936Z,101441.98
2023-01-29T00:39:09.165Z,101431.56
2023-01-29T00:41:58.049Z,101428.44
2023-01-29T00:44:46.656Z,101417.00
2023-01-29T00:47:34.202Z,101416.50
2023-01-29T00:50:07.869Z,101419.13
2023-01-29T00:52:41.160Z,101419.21
2023-01-29T00:55:12.695Z,101408.93
2023-01-29T00:57:43.285Z,101412.75
2023-01-29T01:00:17.174Z,101412.78
2023-01-29T01:03:05.614Z,101413.87
2023-01-29T01:05:39.390Z,101406.59
2023-01-29T01:08:12.056Z,101411.14
2023-01-29T01:10:42.732Z,101416.78
2023-01-29T01:13:14.372Z,101427.05
2023-01-29T01:15:44.951Z,101425.95
2023-01-29T01:18:16.399Z,101431.08
2023-01-29T01:20:48.539Z,101431.67
2023-01-29T01:23:20.689Z,101426.91
2023-01-29T01:25:51.282Z,101427.20
2023-01-29T01:28:23.517Z,101424.27
2023-01-29T01:30:55.557Z,101421.11
2023-01-29T01:33:26.299Z,101420.82
2023-01-29T01:35:56.887Z,101426.13
2023-01-29T01:38:27.720Z,101414.38
2023-01-29T01:40:58.249Z,101414.69
2023-01-29T01:43:28.901Z,101417.35
2023-01-29T01:45:59.533Z,101424.09
2023-01-29T01:48:30.514Z,101421.16
2023-01-29T01:51:05.295Z,101423.42
2023-01-29T01:53:44.920Z,101422.95
2023-01-29T01:56:21.132Z,101420.90
2023-01-29T01:58:57.586Z,101416.58
2023-01-29T02:01:30.572Z,101430.27
2023-01-29T02:04:25.163Z,101431.57
2023-01-29T02:07:17.427Z,101423.78
2023-01-29T02:10:08.839Z,101434.55
2023-01-29T02:12:41.705Z,101425.00
2023-01-29T02:15:13.975Z,101433.16
2023-01-29T02:17:46.096Z,101424.05
2023-01-29T02:20:25.876Z,101436.33
2023-01-29T02:23:11.395Z,101440.69
2023-01-29T02:26:04.620Z,101436.16
2023-01-29T02:28:43.950Z,101426.41
2023-01-29T02:31:26.529Z,101417.41
2023-01-29T02:34:12.053Z,101417.04
2023-01-29T02:36:54.960Z,101414.16
2023-01-29T02:39:28.336Z,101403.59
2023-01-29T02:42:01.823Z,101405.98
2023-01-29T02:44:44.039Z,101397.31
2023-01-29T02:47:44.762Z,101393.27
2023-01-29T02:50:18.558Z,101389.80
2023-01-29T02:53:01.102Z,101391.63
2023-01-29T02:55:43.174Z,101385.45
2023-01-29T02:58:16.625Z,101381.04
2023-01-29T03:00:49.475Z,101382.05
2023-01-29T03:03:22.963Z,101396.25
2023-01-29T03:06:04.922Z,101392.27
2023-01-29T03:08:45.775Z,101375.83
2023-01-29T03:11:18.532Z,101378.56
2023-01-29T03:14:00.549Z,101374.55
2023-01-29T03:16:43.182Z,101367.00
2023-01-29T03:19:22.219Z,101356.68
2023-01-29T03:22:01.971Z,101359.81
2023-01-29T03:25:12.932Z,101349.90
2023-01-29T03:28:06.973Z,101352.27
2023-01-29T03:30:58.026Z,101334.35
2023-01-29T03:33:32.386Z,101326.38
2023-01-29T03:36:06.027Z,101315.86
2023-01-29T03:38:36.519Z,101311.75
2023-01-29T03:41:12.739Z,101308.78
2023-01-29T03:43:58.204Z,101303.67
2023-01-29T03:46:40.843Z,101296.38
2023-01-29T03:49:35.374Z,101294.34
2023-01-29T03:52:20.691Z,101285.62
2023-01-29T03:55:16.934Z,101294.85
2023-01-29T03:58:06.876Z,101285.20
2023-01-29T04:00:48.915Z,101290.40
2023-01-29T04:03:37.378Z,101287.95
2023-01-29T04:06:16.514Z,101290.27
2023-01-29T04:08:49.846Z,101283.23
2023-01-29T04:11:22.300Z,101278.57
2023-01-29T04:13:54.998Z,101285.62
2023-01-29T04:16:36.964Z,101278.23
2023-01-29T04:19:07.926Z,101286.42
2023-01-29T04:21:38.525Z,101255.70
2023-01-29T04:24:10.538Z,101281.41
2023-01-29T04:26:49.648Z,101280.78
2023-01-29T04:29:41.135Z,101279.81
2023-01-29T04:32:14.517Z,101281.34
2023-01-29T04:34:56.835Z,101278.61
2023-01-29T04:37:35.743Z,101265.39
2023-01-29T04:40:12.305Z,101258.14
2023-01-29T04:42:51.476Z,101265.23
2023-01-29T04:45:31.108Z,101263.95
2023-01-29T04:48:22.739Z,101246.53
2023-01-29T04:51:12.495Z,101251.71
2023-01-29T04:53:45.878Z,101240.86
2023-01-29T04:56:19.371Z,101228.91
2023-01-29T04:58:52.726Z,101229.44
2023-01-29T05:01:26.485Z,101229.44
2023-01-29T05:03:59.506Z,101230.77
2023-01-29T05:06:32.949Z,101234.61
2023-01-29T05:09:04.691Z,101224.27
2023-01-29T05:11:36.735Z,101224.63
2023-01-29T05:14:10.043Z,101211.65
2023-01-29T05:16:43.485Z,101207.61
2023-01-29T05:19:16.362Z,101212.72
2023-01-29T05:21:49.295Z,101203.16
2023-01-29T05:24:25.728Z,101218.01
2023-01-29T05:27:14.373Z,101207.05
2023-01-29T05:29:48.275Z,101213.95
2023-01-29T05:32:18.758Z,101195.25
2023-01-29T05:34:49.202Z,101203.92
2023-01-29T05:37:19.642Z,101201.14
2023-01-29T05:39:50.193Z,101215.99
2023-01-29T05:42:21.974Z,101192.30
2023-01-29T05:44:52.756Z,101191.29
2023-01-29T05:47:24.398Z,101184.52
2023-01-29T05:49:54.853Z,101191.06
2023-01-29T05:52:25.306Z,101206.42
2023-01-29T05:54:55.799Z,101200.95
2023-01-29T05:57:26.276Z,101219.55
2023-01-29T05:59:56.781Z,101212.80
2023-01-29T06:02:27.254Z,101219.59
2023-01-29T06:04:57.841Z,101215.88
2023-01-29T06:07:28.413Z,101216.99
2023-01-29T06:09:58.987Z,101227.72
2023-01-29T06:12:29.794Z,101230.04
2023-01-29T06:15:00.399Z,101242.01
2023-01-29T06:17:31.048Z,101246.91
2023-01-29T06:20:02.007Z,101253.67
2023-01-29T06:22:33.876Z,101249.66
2023-01-29T06:25:05.025Z,101269.78
2023-01-29T06:27:35.506Z,101252.22
2023-01-29T06:30:07.833Z,101251.75
2023-01-29T06:32:38.383Z,101258.69
2023-01-29T06:35:10.684Z,101253.34
2023-01-29T06:37:41.552Z,101252.72
2023-01-29T06:40:13.172Z,101270.67
2023-01-29T06:42:45.921Z,101264.34
2023-01-29T06:45:16.728Z,101271.80
2023-01-29T06:47:47.201Z,101277.81
2023-01-29T06:50:18.349Z,101277.61
2023-01-29T06:52:49.210Z,101271.84
2023-01-29T06:55:19.794Z,101272.66
2023-01-29T06:57:50.355Z,101261.20
2023-01-29T07:00:21.224Z,101249.70
2023-01-29T07:02:51.932Z,101248.77
2023-01-29T07:05:22.541Z,101241.84
2023-01-29T07:07:53.097Z,101241.61
2023-01-29T07:10:23.616Z,101235.89
2023-01-29T07:12:54.165Z,101251.14
2023-01-29T07:15:25.981Z,101244.81
2023-01-29T07:18:04.751Z,101229.50
2023-01-29T07:20:35.300Z,101223.73
2023-01-29T07:23:06.176Z,101223.73
2023-01-29T07:25:36.685Z,101240.65
2023-01-29T07:28:07.658Z,101247.59
2023-01-29T07:30:38.308Z,101239.06
2023-01-29T07:33:10.773Z,101231.44
2023-01-29T07:35:43.293Z,101236.07
2023-01-29T07:38:13.841Z,101224.60
2023-01-29T07:40:45.151Z,101220.00
2023-01-29T07:43:16.528Z,101218.62
2023-01-29T07:45:47.064Z,101215.20
2023-01-29T07:48:17.647Z,101227.04
2023-01-29T07:50:51.018Z,101219.92
2023-01-29T07:53:22.799Z,101217.09
2023-01-29T07:55:53.598Z,101222.41
2023-01-29T07:58:24.373Z,101219.80
2023-01-29T08:00:54.860Z,101221.41
2023-01-29T08:03:25.364Z,101224.09
2023-01-29T08:05:55.782Z,101238.09
2023-01-29T08:08:26.545Z,101235.38
2023-01-29T08:10:57.210Z,101240.92
2023-01-29T08:13:27.720Z,101238.13
2023-01-29T08:16:03.817Z,101234.22
2023-01-29T08:18:34.276Z,101231.88
2023-01-29T08:21:04.951Z,101229.77
2023-01-29T08:23:35.415Z,101230.66
2023-01-29T08:26:06.119Z,101229.36
2023-01-29T08:28:38.902Z,101218.54
2023-01-29T08:31:14.746Z,101224.94
2023-01-29T08:33:45.322Z,101213.27
2023-01-29T08:36:16.360Z,101204.47
2023-01-29T08:38:46.931Z,101217.34
2023-01-29T08:41:17.585Z,101213.70
2023-01-29T08:43:48.141Z,101200.97
2023-01-29T08:46:18.738Z,101199.11
2023-01-29T08:48:49.339Z,101177.86
2023-01-29T08:51:19.870Z,101176.88
2023-01-29T08:53:50.760Z,101173.94
2023-01-29T08:56:22.193Z,101177.42
2023-01-29T08:58:52.783Z,101188.64
2023-01-29T09:01:23.426Z,101179.25
2023-01-29T09:03:55.171Z,101180.05
2023-01-29T09:06:25.826Z,101167.50
2023-01-29T09:08:56.537Z,101161.52
2023-01-29T09:11:27.205Z,101174.23
2023-01-29T09:13:58.940Z,101180.02
2023-01-29T09:16:29.530Z,101184.64
2023-01-29T09:19:00.160Z,101196.23
2023-01-29T09:21:32.032Z,101191.06
2023-01-29T09:24:02.607Z,101184.14
2023-01-29T09:26:33.261Z,101184.97
2023-01-29T09:29:03.860Z,101190.92
2023-01-29T09:31:34.512Z,101190.15
2023-01-29T09:34:05.285Z,101185.98
2023-01-29T09:36:35.860Z,101190.55
2023-01-29T09:39:06.448Z,101187.47
2023-01-29T09:41:54.835Z,101197.13
2023-01-29T09:44:48.107Z,101188.09
2023-01-29T09:47:21.062Z,101188.25
2023-01-29T09:49:56.456Z,101183.81
2023-01-29T09:52:29.899Z,101180.89
2023-01-29T09:55:15.844Z,101169.67
2023-01-29T09:57:53.080Z,101165.77
2023-01-29T10:00:32.825Z,101164.34
2023-01-29T10:03:09.192Z,101163.64
2023-01-29T10:05:44.020Z,101168.98
2023-01-29T10:08:23.996Z,101163.30
2023-01-29T10:11:00.489Z,101170.03
2023-01-29T10:13:52.263Z,101152.81
2023-01-29T10:16:34.476Z,101168.09
2023-01-29T10:19:21.560Z,101164.20
2023-01-29T10:22:27.845Z,101156.72
2023-01-29T10:25:01.427Z,101139.08
2023-01-29T10:27:38.679Z,101137.34
2023-01-29T10:30:12.184Z,101132.97
2023-01-29T10:32:42.859Z,101138.42
2023-01-29T10:35:22.251Z,101107.73
2023-01-29T10:37:55.593Z,101105.62
2023-01-29T10:40:41.103Z,101116.31
2023-01-29T10:43:14.937Z,101108.37
2023-01-29T10:46:05.116Z,101106.89
2023-01-29T10:48:58.048Z,101114.02
2023-01-29T10:51:40.477Z,101101.84
2023-01-29T10:54:28.994Z,101096.25
2023-01-29T10:57:08.518Z,101088.92
2023-01-29T10:59:46.423Z,101078.14
2023-01-29T11:02:22.818Z,101075.36
2023-01-29T11:04:56.485Z,101069.39
2023-01-29T11:07:32.336Z,101065.75
2023-01-29T11:10:05.852Z,101068.47
2023-01-29T11:12:39.097Z,101072.38
2023-01-29T11:15:25.014Z,101059.48
2023-01-29T11:21:04.634Z,101054.88
2023-01-29T11:23:36.115Z,101050.56
2023-01-29T11:26:09.486Z,101030.16
2023-01-29T11:28:45.531Z,101035.73
2023-01-29T11:31:19.940Z,101041.19
2023-01-29T11:33:52.660Z,101031.18
2023-01-29T11:36:39.878Z,101027.36
2023-01-29T11:39:16.717Z,101029.34
2023-01-29T11:41:50.167Z,101030.91
2023-01-29T11:44:34.263Z,101032.70
2023-01-29T11:47:24.451Z,101011.81
2023-01-29T11:50:00.045Z,101003.92
2023-01-29T11:52:39.284Z,100993.91
2023-01-29T11:55:28.337Z,101004.74
2023-01-29T11:58:20.012Z,101005.72
2023-01-29T12:00:55.606Z,101006.75
2023-01-29T12:03:34.965Z,100996.39
2023-01-29T12:06:09.472Z,100985.30
2023-01-29T12:08:41.586Z,100973.73
2023-01-29T12:11:36.229Z,100986.69
2023-01-29T12:14:09.772Z,100986.35
2023-01-29T12:16:57.830Z,100960.80
2023-01-29T12:19:47.431Z,100976.70
2023-01-29T12:22:35.776Z,100986.30
2023-01-29T12:25:10.457Z,100992.44
2023-01-29T12:28:02.488Z,100984.38
2023-01-29T12:30:41.888Z,100990.19
2023-01-29T12:33:27.734Z,100959.34
2023-01-29T12:36:16.824Z,100962.08
2023-01-29T12:38:47.604Z,100960.30
2023-01-29T12:41:36.416Z,100957.09
2023-01-29T12:44:37.249Z,100948.67
2023-01-29T12:47:10.752Z,100946.59
2023-01-29T12:49:43.227Z,100943.98
2023-01-29T12:52:29.024Z,100945.03
2023-01-29T12:55:08.544Z,100943.30
2023-01-29T12:57:54.942Z,100949.56
2023-01-29T13:00:28.590Z,100958.89
2023-01-29T13:03:05.432Z,100956.54
2023-01-29T13:05:41.781Z,100955.94
2023-01-29T13:08:21.177Z,100955.42
2023-01-29T13:10:54.767Z,100949.85
2023-01-29T13:13:39.064Z,100956.24
2023-01-29T13:16:13.343Z,100944.52
2023-01-29T13:18:47.102Z,100935.05
2023-01-29T13:21:27.612Z,100927.83
2023-01-29T13:24:13.156Z,100927.38
2023-01-29T13:26:49.210Z,100922.30
2023-01-29T13:29:29.058Z,100918.05
2023-01-29T13:32:05.673Z,100912.41
2023-01-29T13:34:49.509Z,100916.24
2023-01-29T13:37:43.204Z,100926.95
2023-01-29T13:40:22.647Z,100930.91
2023-01-29T13:42:56.556Z,100918.05
2023-01-29T13:45:31.077Z,100917.45
2023-01-29T13:48:24.238Z,100913.99
2023-01-29T13:50:57.046Z,100907.20
2023-01-29T13:53:40.055Z,100920.55
2023-01-29T13:56:36.126Z,100922.55
2023-01-29T13:59:08.175Z,100913.43
2023-01-29T14:01:54.950Z,100914.23
2023-01-29T14:04:29.475Z,100908.49
2023-01-29T14:07:03.340Z,100898.37
2023-01-29T14:09:43.488Z,100897.11
2023-01-29T14:12:26.637Z,100889.59
2023-01-29T14:15:00.181Z,100897.49
2023-01-29T14:17:32.040Z,100903.09
2023-01-29T14:20:25.791Z,100900.77
2023-01-29T14:22:59.831Z,100904.87
2023-01-29T14:25:33.371Z,100915.92
2023-01-29T14:28:11.887Z,100929.39
2023-01-29T14:30:44.437Z,100919.46
2023-01-29T14:33:37.178Z,100914.33
2023-01-29T14:36:16.237Z,100916.91
2023-01-29T14:38:52.661Z,100917.67
2023-01-29T14:41:30.093Z,100901.13
2023-01-29T14:44:37.590Z,100907.95
2023-01-29T14:47:21.831Z,100905.64
2023-01-29T14:50:07.105Z,100884.39
2023-01-29T14:52:44.519Z,100894.05
2023-01-29T14:55:39.089Z,100883.44
2023-01-29T14:58:19.342Z,100885.97
2023-01-29T15:00:56.869Z,100891.36
2023-01-29T15:03:43.629Z,100901.45
2023-01-29T15:06:21.341Z,100901.27
2023-01-29T15:09:32.712Z,100905.28
2023-01-29T15:12:03.039Z,100904.48
2023-01-29T15:14:42.443Z,100896.61
2023-01-29T15:17:18.900Z,100895.11
2023-01-29T15:19:51.522Z,100889.25
2023-01-29T15:22:30.502Z,100883.04
2023-01-29T15:25:09.146Z,100878.52
2023-01-29T15:27:47.265Z,100880.63
2023-01-29T15:30:31.009Z,100881.45
2023-01-29T15:33:06.715Z,100876.44
2023-01-29T15:35:44.608Z,100864.33
2023-01-29T15:38:22.259Z,100857.02
2023-01-29T15:41:02.515Z,100860.78
2023-01-29T15:43:41.844Z,100870.91
2023-01-29T15:46:29.146Z,100861.44
2023-01-29T15:49:05.635Z,100857.14
2023-01-29T15:51:39.790Z,100853.86
2023-01-29T15:54:16.847Z,100854.19
2023-01-29T15:56:54.467Z,100852.73
2023-01-29T15:59:36.060Z,100853.66
2023-01-29T16:02:31.184Z,100841.56
2023-01-29T16:05:04.208Z,100841.52
2023-01-29T16:07:40.207Z,100832.09
2023-01-29T16:10:21.019Z,100835.09
2023-01-29T16:12:56.844Z,100836.84
2023-01-29T16:15:42.494Z,100832.64
2023-01-29T16:18:28.246Z,100820.62
2023-01-29T16:21:07.643Z,100819.32
2023-01-29T16:23:44.800Z,100810.59
2023-01-29T16:26:25.916Z,100809.45
2023-01-29T16:28:59.583Z,100813.51
2023-01-29T16:31:37.521Z,100810.78
2023-01-29T16:34:19.326Z,100795.96
2023-01-29T16:36:53.506Z,100806.90
2023-01-29T16:39:35.082Z,100808.31
2023-01-29T16:42:22.074Z,100799.39
2023-01-29T16:45:12.234Z,100811.38
2023-01-29T16:47:47.125Z,100798.69
2023-01-29T16:50:54.268Z,100800.48
2023-01-29T16:53:25.384Z,100793.09
2023-01-29T16:56:01.905Z,100792.08
2023-01-29T16:58:38.368Z,100794.25
2023-01-29T17:01:15.664Z,100794.84
2023-01-29T17:03:56.896Z,100787.25
2023-01-29T17:06:33.916Z,100784.38
2023-01-29T17:09:10.485Z,100786.13
2023-01-29T17:11:46.694Z,100788.53
2023-01-29T17:14:27.959Z,100768.00
2023-01-29T17:17:09.972Z,100762.30
2023-01-29T17:19:44.182Z,100772.77
2023-01-29T17:25:20.109Z,100768.56
2023-01-29T17:27:57.309Z,100758.58
2023-01-29T17:30:35.084Z,100759.00
2023-01-29T17:33:29.934Z,100758.14
2023-01-29T17:36:04.504Z,100761.14
2023-01-29T17:38:40.769Z,100751.00
2023-01-29T17:41:24.402Z,100745.38
2023-01-29T17:43:58.881Z,100745.61
2023-01-29T17:46:33.854Z,100739.40
2023-01-29T17:49:07.649Z,100728.83
2023-01-29T17:51:41.520Z,100729.42
2023-01-29T17:54:16.863Z,100738.06
2023-01-29T17:56:53.562Z,100727.13
2023-01-29T17:59:29.697Z,100735.89
2023-01-29T18:02:02.360Z,100723.01
2023-01-29T18:04:35.283Z,100705.16
2023-01-29T18:07:20.317Z,100711.20
2023-01-29T18:09:56.217Z,100697.44
2023-01-29T18:12:33.143Z,100704.53
2023-01-29T18:15:09.315Z,100702.38
2023-01-29T18:17:45.416Z,100695.15
2023-01-29T18:20:25.831Z,100701.30
2023-01-29T18:22:59.279Z,100694.39
2023-01-29T18:25:31.696Z,100709.58
2023-01-29T18:28:09.640Z,100696.00
2023-01-29T18:30:44.698Z,100683.44
2023-01-29T18:33:18.525Z,100708.16
2023-01-29T18:36:01.870Z,100699.90
2023-01-29T18:38:35.669Z,100699.66
2023-01-29T18:41:11.989Z,100693.26
2023-01-29T18:43:45.273Z,100686.70
2023-01-29T18:46:22.102Z,100685.36
2023-01-29T18:49:03.661Z,100669.64
2023-01-29T18:54:32.905Z,100659.48
2023-01-29T18:57:14.041Z,100649.47
2023-01-29T18:59:47.677Z,100649.61
2023-01-29T19:02:21.252Z,100641.90
2023-01-29T19:05:04.589Z,100628.92
2023-01-29T19:07:39.108Z,100624.67
2023-01-29T19:10:17.973Z,100625.95
2023-01-29T19:12:51.917Z,100626.59
2023-01-29T19:15:31.707Z,100628.67
2023-01-29T19:18:05.571Z,100623.26
2023-01-29T19:20:39.547Z,100622.35
2023-01-29T19:23:17.778Z,100615.99
2023-01-29T19:25:58.709Z,100627.82
2023-01-29T19:28:50.264Z,100611.64
2023-01-29T19:31:26.759Z,100610.70
2023-01-29T19:34:08.305Z,100590.00
2023-01-29T19:36:41.099Z,100606.66
2023-01-29T19:39:16.720Z,100596.87
2023-01-29T19:41:54.345Z,100608.02
2023-01-29T19:47:34.606Z,100593.17
2023-01-29T19:50:12.213Z,100597.47
2023-01-29T19:52:51.633Z,100592.63
2023-01-29T19:55:26.064Z,100587.95
2023-01-29T19:57:59.725Z,100579.84
2023-01-29T20:00:34.752Z,100580.78
2023-01-29T20:03:15.614Z,100581.87
2023-01-29T20:05:50.277Z,100577.98
2023-01-29T20:08:29.534Z,100574.95
2023-01-29T20:11:05.762Z,100569.52
2023-01-29T20:13:38.631Z,100566.75
2023-01-29T20:16:11.736Z,100553.83
2023-01-29T20:18:44.569Z,100544.28
2023-01-29T20:21:29.118Z,100542.97
2023-01-29T20:24:13.856Z,100549.00
2023-01-29T20:26:46.514Z,100540.14
2023-01-29T20:32:16.506Z,100535.00
2023-01-29T20:34:52.769Z,100524.14
2023-01-29T20:37:30.182Z,100527.78
2023-01-29T20:40:04.423Z,100522.88
2023-01-29T20:42:42.396Z,100523.77
2023-01-29T20:45:16.757Z,100524.02
2023-01-29T20:47:55.677Z,100502.03
2023-01-29T20:50:30.014Z,100506.98
2023-01-29T20:56:04.487Z,100496.01
2023-01-29T20:58:42.489Z,100499.05
2023-01-29T21:01:18.353Z,100488.05
2023-01-29T21:03:53.378Z,100493.39
2023-01-29T21:06:34.577Z,100480.46
2023-01-29T21:09:08.777Z,100486.42
2023-01-29T21:11:53.666Z,100473.22
2023-01-29T21:14:37.201Z,100475.43
2023-01-29T21:17:09.946Z,100434.95
2023-01-29T21:19:53.436Z,100460.27
2023-01-29T21:22:27.251Z,100452.39
2023-01-29T21:25:06.276Z,100438.86
2023-01-29T21:27:37.596Z,100442.96
2023-01-29T21:30:16.521Z,100435.02
2023-01-29T21:32:51.370Z,100433.46
2023-01-29T21:35:25.482Z,100423.33
2023-01-29T21:38:02.240Z,100420.13
2023-01-29T21:40:38.427Z,100420.02
2023-01-29T21:43:15.301Z,100409.56
2023-01-29T21:45:49.426Z,100402.20
2023-01-29T21:48:23.709Z,100403.57
2023-01-29T21:51:06.285Z,100393.20
2023-01-29T21:53:42.943Z,100399.79
2023-01-29T21:56:16.801Z,100407.27
2023-01-29T21:59:01.072Z,100400.70
2023-01-29T22:01:38.128Z,100388.94
2023-01-29T22:04:21.193Z,100385.00
2023-01-29T22:06:57.394Z,100377.92
2023-01-29T22:09:33.306Z,100364.50
2023-01-29T22:12:04.190Z,100362.30
2023-01-29T22:14:35.538Z,100374.84
2023-01-29T22:17:10.626Z,100363.40
2023-01-29T22:19:42.723Z,100352.64
2023-01-29T22:22:16.012Z,100353.44
2023-01-29T22:24:46.920Z,100332.76
2023-01-29T22:27:17.653Z,100325.33
2023-01-29T22:29:48.571Z,100332.78
2023-01-29T22:32:19.423Z,100323.00
2023-01-29T22:34:50.011Z,100316.55
2023-01-29T22:37:21.876Z,100312.48
2023-01-29T22:39:53.183Z,100306.73
2023-01-29T22:42:24.146Z,100304.83
2023-01-29T22:44:56.051Z,100302.23
2023-01-29T22:47:26.632Z,100305.28
2023-01-29T22:49:57.388Z,100287.28
2023-01-29T22:52:42.965Z,100292.86
2023-01-29T22:55:14.742Z,100279.39
2023-01-29T22:57:46.868Z,100270.73
2023-01-29T23:00:20.168Z,100264.40
2023-01-29T23:02:51.720Z,100250.02
2023-01-29T23:05:22.741Z,100249.27
2023-01-29T23:07:53.840Z,100258.78
2023-01-29T23:10:28.072Z,100248.80
2023-01-29T23:12:58.686Z,100236.30
2023-01-29T23:15:29.278Z,100232.06
2023-01-29T23:18:00.360Z,100223.78
2023-01-29T23:20:31.551Z,100217.36
2023-01-29T23:23:02.387Z,100224.57
2023-01-29T23:25:53.820Z,100209.56
2023-01-29T23:28:25.796Z,100207.41
2023-01-29T23:30:56.883Z,100196.34
2023-01-29T23:33:30.613Z,100176.23
2023-01-29T23:36:01.313Z,100183.05
2023-01-29T23:38:34.949Z,100167.34
2023-01-29T23:41:05.836Z,100146.54
2023-01-29T23:43:36.870Z,100139.09
2023-01-29T23:46:07.951Z,100142.62
2023-01-29T23:48:40.021Z,100138.16
2023-01-29T23:51:11.318Z,100138.27
2023-01-29T23:53:42.403Z,100135.84
2023-01-29T23:56:13.309Z,100130.86
2023-01-29T23:58:45.004Z,100126.42
